EST,Max TemperatureF,Mean TemperatureF,Min TemperatureF,Max Dew PointF,MeanDew PointF,Min DewpointF,Max Humidity, Mean Humidity, Min Humidity, Max Sea Level PressureIn, Mean Sea Level PressureIn, Min Sea Level PressureIn, Max VisibilityMiles, Mean VisibilityMiles, Min VisibilityMiles, Max Wind SpeedMPH, Mean Wind SpeedMPH, Max Gust SpeedMPH,PrecipitationIn, CloudCover, Events, WindDirDegrees
2011-11-1,62,47,32,43,35,32,100,73,34,30.30,30.25,30.20,10,7,0,9,2,,0.00,0,Fog,200
2011-11-2,68,50,33,45,38,34,100,67,33,30.30,30.23,30.13,10,9,4,15,3,21,0.00,0,,212
2011-11-3,59,48,37,52,44,37,100,85,51,30.10,29.99,29.88,10,9,2,8,2,,0.00,3,Rain,156
2011-11-4,57,52,48,50,41,32,94,72,38,30.22,30.13,29.99,10,9,4,17,11,23,0.00,4,Rain,30
2011-11-5,59,44,30,32,31,28,100,64,34,30.35,30.29,30.23,10,10,10,9,3,,0.00,0,,106
2011-11-6,60,46,33,43,35,32,93,70,36,30.35,30.27,30.21,10,9,1,17,3,21,0.00,0,,202
2011-11-7,68,56,44,54,46,39,94,76,56,30.33,30.28,30.23,10,10,10,8,4,,0.00,5,,202
2011-11-8,71,56,41,55,48,41,100,80,53,30.23,30.16,30.07,10,8,1,15,3,22,0.00,1,,199
2011-11-9,59,52,41,55,50,36,100,88,63,30.05,29.93,29.79,10,10,2,28,8,41,0.00,6,Rain,221
2011-11-10,46,40,33,37,33,28,100,82,50,30.10,30.05,30.00,10,10,10,20,9,26,0.00,3,,261
2011-11-11,44,36,28,32,31,28,100,84,61,30.13,30.06,29.98,10,10,7,13,8,22,0.00,0,,225
2011-11-12,59,46,33,41,35,30,93,63,42,30.04,29.98,29.93,10,10,10,18,11,28,0.00,0,,214
2011-11-13,66,60,53,57,46,34,77,65,47,29.93,29.81,29.68,10,10,10,24,16,37,0.00,7,,204
2011-11-14,71,63,55,64,61,55,100,85,73,29.79,29.72,29.63,10,10,2,28,15,46,0.00,7,Rain,219
2011-11-15,55,53,51,55,53,52,100,100,100,29.93,29.87,29.78,10,10,10,14,7,,0.00,6,Rain,210
2011-11-16,53,47,41,54,47,32,100,89,57,30.08,29.92,29.85,10,7,2,15,4,22,0.00,5,Rain,335
2011-11-17,42,38,32,32,25,18,93,67,42,30.31,30.20,30.13,10,10,10,29,8,34,0.00,3,,280
2011-11-18,46,34,21,30,25,21,100,70,37,30.42,30.32,30.17,10,10,10,18,4,26,0.00,0,,194
2011-11-19,57,46,35,50,37,27,81,71,61,30.20,30.12,30.00,10,10,10,17,9,25,0.00,4,,195
2011-11-20,59,52,46,55,53,46,100,95,77,30.23,30.14,30.03,10,6,1,15,10,23,0.00,8,Rain,216
2011-11-21,46,45,44,46,46,45,100,100,100,30.27,30.23,30.18,10,6,1,12,6,16,0.00,8,Rain,51
2011-11-22,60,53,46,61,51,46,100,100,94,30.16,29.90,29.66,10,7,1,24,8,36,0.00,8,Rain,75
2011-11-23,51,44,37,46,41,37,100,92,71,30.32,30.14,29.84,10,9,5,14,9,22,0.00,5,,299
2011-11-24,46,42,37,46,41,37,100,99,93,30.39,30.33,30.30,10,6,2,14,8,20,0.00,7,,230
2011-11-25,59,44,28,46,39,28,100,82,55,30.27,30.19,30.10,10,7,0,22,5,28,0.00,1,Fog,215
2011-11-26,66,52,37,54,46,36,100,73,60,30.16,30.07,29.93,10,10,10,16,8,25,0.00,1,,195
2011-11-27,57,52,46,55,51,46,100,98,82,29.99,29.90,29.83,10,8,2,14,9,21,0.00,8,Rain,218
2011-11-28,50,44,41,50,44,41,100,100,100,30.00,29.91,29.74,10,7,3,16,9,21,0.00,8,Rain,28
2011-11-29,51,42,32,52,41,32,100,100,100,29.75,29.68,29.62,10,6,2,21,11,28,0.00,8,Rain-Snow,234
2011-11-30,37,32,28,34,32,28,100,94,81,30.22,30.03,29.78,10,10,3,15,9,21,0.00,4,Snow,285